Saintfield, United Kingdom
Current Conditions -  °F | °C
As of 4:20 PM on Monday 24 Nov 2014 (Local Time) from EGAC Reporting Station
Broken Clouds Broken Clouds  
Wind Chill: 43°   Ceiling: 3700
Heat Index: 46°   Visibility: 6mi
Dew Point: 39°   Wind: 7mph
Humidity: 76%   Direction: 200°SSW
Pressure: 30.24"   Gusts: NA
Location:  54.46°N, 5.83°W
Report Text: EGAC 241620Z 20006KT 9999 FEW026 BKN037 08/04 Q1024
Loading
Personal Weather Stations






























Interactive Weather Map New forecast layout! Learn more

10-Day Weather Forecast

Advertisements
Track Severe Weather on mobile